createdAt,value
2022-12-20T00:01:26.909Z,98916.25
2022-12-20T00:03:54.608Z,98918.97
2022-12-20T00:06:21.242Z,98917.44
2022-12-20T00:08:47.913Z,98911.22
2022-12-20T00:11:14.433Z,98906.84
2022-12-20T00:13:41.042Z,98910.28
2022-12-20T00:16:14.518Z,98901.81
2022-12-20T00:18:41.854Z,98914.34
2022-12-20T00:21:10.117Z,98910.88
2022-12-20T00:23:37.466Z,98901.78
2022-12-20T00:26:08.727Z,98903.41
2022-12-20T00:28:35.807Z,98898.97
2022-12-20T00:31:04.146Z,98898.03
2022-12-20T00:33:34.206Z,98905.75
2022-12-20T00:36:01.424Z,98902.47
2022-12-20T00:38:27.932Z,98888.97
2022-12-20T00:41:01.628Z,98891.81
2022-12-20T00:43:29.398Z,98897.03
2022-12-20T00:45:56.217Z,98878.00
2022-12-20T00:48:22.946Z,98877.44
2022-12-20T00:50:49.551Z,98877.56
2022-12-20T00:53:19.857Z,98882.97
2022-12-20T00:55:49.808Z,98880.59
2022-12-20T00:58:16.570Z,98869.81
2022-12-20T01:00:43.120Z,98880.59
2022-12-20T01:03:09.876Z,98866.03
2022-12-20T01:05:36.507Z,98875.91
2022-12-20T01:08:03.738Z,98871.94
2022-12-20T01:10:30.189Z,98868.25
2022-12-20T01:12:56.821Z,98871.94
2022-12-20T01:15:23.319Z,98866.41
2022-12-20T01:17:49.973Z,98867.31
2022-12-20T01:20:16.936Z,98872.03
2022-12-20T01:22:47.500Z,98864.50
2022-12-20T01:25:14.405Z,98871.84
2022-12-20T01:27:40.859Z,98863.47
2022-12-20T01:30:07.703Z,98856.84
2022-12-20T01:32:34.270Z,98856.38
2022-12-20T01:35:00.922Z,98856.03
2022-12-20T01:37:27.354Z,98857.19
2022-12-20T01:39:53.795Z,98851.75
2022-12-20T01:42:20.833Z,98849.63
2022-12-20T01:45:08.492Z,98838.56
2022-12-20T01:47:36.760Z,98845.38
2022-12-20T01:50:04.587Z,98838.44
2022-12-20T01:52:34.931Z,98834.16
2022-12-20T01:55:10.781Z,98832.97
2022-12-20T01:57:37.301Z,98818.28
2022-12-20T02:00:04.915Z,98818.28
2022-12-20T02:02:40.749Z,98825.09
2022-12-20T02:05:07.644Z,98814.97
2022-12-20T02:07:35.214Z,98813.47
2022-12-20T02:10:02.531Z,98813.25
2022-12-20T02:12:32.514Z,98809.19
2022-12-20T02:15:08.277Z,98811.91
2022-12-20T02:17:53.561Z,98814.94
2022-12-20T02:20:38.880Z,98806.91
2022-12-20T02:23:23.943Z,98803.88
2022-12-20T02:25:53.298Z,98803.56
2022-12-20T02:28:19.717Z,98799.97
2022-12-20T02:30:47.349Z,98798.50
2022-12-20T02:33:14.424Z,98791.72
2022-12-20T02:35:41.482Z,98788.97
2022-12-20T02:38:29.051Z,98778.34
2022-12-20T02:41:08.329Z,98775.09
2022-12-20T02:43:55.291Z,98773.19
2022-12-20T02:46:22.829Z,98767.22
2022-12-20T02:48:51.196Z,98780.81
2022-12-20T02:51:19.297Z,98765.25
2022-12-20T02:53:46.003Z,98767.28
2022-12-20T02:56:14.109Z,98766.84
2022-12-20T02:58:49.150Z,98765.50
2022-12-20T03:01:25.469Z,98758.13
2022-12-20T03:03:54.438Z,98757.41
2022-12-20T03:06:21.546Z,98764.56
2022-12-20T03:08:48.215Z,98766.00
2022-12-20T03:11:15.072Z,98760.78
2022-12-20T03:13:41.618Z,98758.81
2022-12-20T03:16:10.734Z,98759.00
2022-12-20T03:18:38.165Z,98755.53
2022-12-20T03:21:04.710Z,98759.72
2022-12-20T03:23:31.288Z,98754.16
2022-12-20T03:25:58.061Z,98747.00
2022-12-20T03:28:35.270Z,98749.91
2022-12-20T03:31:02.074Z,98739.03
2022-12-20T03:33:29.803Z,98746.50
2022-12-20T03:35:58.472Z,98747.56
2022-12-20T03:38:25.004Z,98735.91
2022-12-20T03:40:51.470Z,98734.72
2022-12-20T03:43:20.883Z,98737.44
2022-12-20T03:45:47.448Z,98734.78
2022-12-20T03:48:14.146Z,98741.31
2022-12-20T03:50:40.830Z,98734.53
2022-12-20T03:53:08.862Z,98737.66
2022-12-20T03:55:35.690Z,98734.41
2022-12-20T03:58:02.364Z,98721.72
2022-12-20T04:00:34.917Z,98713.09
2022-12-20T04:03:21.411Z,98711.50
2022-12-20T04:05:48.690Z,98730.97
2022-12-20T04:08:15.257Z,98737.75
2022-12-20T04:11:00.428Z,98741.00
2022-12-20T04:13:32.295Z,98737.75
2022-12-20T04:16:00.975Z,98740.34
2022-12-20T04:18:31.469Z,98728.72
2022-12-20T04:21:00.224Z,98729.69
2022-12-20T04:23:28.870Z,98741.69
2022-12-20T04:25:55.351Z,98734.66
2022-12-20T04:28:22.019Z,98729.41
2022-12-20T04:30:50.341Z,98723.69
2022-12-20T04:33:22.919Z,98719.00
2022-12-20T04:35:49.725Z,98723.38
2022-12-20T04:38:16.289Z,98717.63
2022-12-20T04:40:42.871Z,98718.69
2022-12-20T04:43:09.934Z,98721.78
2022-12-20T04:45:36.472Z,98729.13
2022-12-20T04:48:28.582Z,98724.88
2022-12-20T04:50:50.659Z,98717.97
2022-12-20T04:53:36.247Z,98716.75
2022-12-20T04:56:03.339Z,98707.16
2022-12-20T04:58:30.564Z,98711.06
2022-12-20T05:01:01.205Z,98711.22
2022-12-20T05:03:38.083Z,98712.22
2022-12-20T05:06:05.227Z,98718.88
2022-12-20T05:08:33.293Z,98720.69
2022-12-20T05:11:00.801Z,98706.81
2022-12-20T05:13:28.165Z,98706.56
2022-12-20T05:15:56.329Z,98704.97
2022-12-20T05:18:28.687Z,98703.25
2022-12-20T05:21:19.276Z,98701.28
2022-12-20T05:24:07.423Z,98703.09
2022-12-20T05:26:48.121Z,98690.94
2022-12-20T05:29:17.546Z,98696.13
2022-12-20T05:31:44.267Z,98693.63
2022-12-20T05:34:10.992Z,98690.94
2022-12-20T05:36:39.109Z,98693.00
2022-12-20T05:39:07.315Z,98695.16
2022-12-20T05:41:37.942Z,98696.94
2022-12-20T05:44:08.060Z,98698.75
2022-12-20T05:46:37.777Z,98694.00
2022-12-20T05:49:10.005Z,98691.97
2022-12-20T05:51:37.023Z,98678.00
2022-12-20T05:54:17.048Z,98684.31
2022-12-20T05:57:18.739Z,98696.13
2022-12-20T05:59:46.491Z,98687.28
2022-12-20T06:02:17.960Z,98684.75
2022-12-20T06:04:47.404Z,98679.38
2022-12-20T06:07:17.109Z,98675.28
2022-12-20T06:09:46.815Z,98672.31
2022-12-20T06:12:16.542Z,98673.47
2022-12-20T06:14:43.390Z,98664.41
2022-12-20T06:17:12.197Z,98661.09
2022-12-20T06:19:41.496Z,98667.81
2022-12-20T06:22:10.132Z,98668.47
2022-12-20T06:24:48.875Z,98671.50
2022-12-20T06:27:18.946Z,98672.69
2022-12-20T06:29:54.435Z,98673.47
2022-12-20T06:32:25.113Z,98678.59
2022-12-20T06:34:52.480Z,98681.53
2022-12-20T06:37:19.052Z,98681.53
2022-12-20T06:39:45.522Z,98689.50
2022-12-20T06:42:13.259Z,98684.75
2022-12-20T06:44:42.217Z,98688.19
2022-12-20T06:47:08.775Z,98690.88
2022-12-20T06:49:35.219Z,98680.13
2022-12-20T06:52:07.083Z,98683.13
2022-12-20T06:54:42.987Z,98681.53
2022-12-20T06:57:09.740Z,98681.69
2022-12-20T06:59:37.894Z,98685.78
2022-12-20T07:02:05.446Z,98681.94
2022-12-20T07:04:33.936Z,98684.66
2022-12-20T07:07:00.369Z,98677.94
2022-12-20T07:09:26.844Z,98675.75
2022-12-20T07:11:53.457Z,98676.41
2022-12-20T07:14:19.922Z,98672.63
2022-12-20T07:16:46.569Z,98677.03
2022-12-20T07:19:13.916Z,98671.06
2022-12-20T07:21:40.405Z,98670.00
2022-12-20T07:24:07.104Z,98669.28
2022-12-20T07:26:33.696Z,98672.84
2022-12-20T07:29:00.182Z,98674.81
2022-12-20T07:31:26.662Z,98674.25
2022-12-20T07:33:53.254Z,98686.88
2022-12-20T07:36:19.809Z,98686.78
2022-12-20T07:38:46.389Z,98694.16
2022-12-20T07:41:14.557Z,98695.34
2022-12-20T07:43:41.383Z,98690.72
2022-12-20T07:46:11.925Z,98680.81
2022-12-20T07:48:38.547Z,98673.81
2022-12-20T07:51:15.264Z,98671.72
2022-12-20T07:53:45.603Z,98672.72
2022-12-20T07:56:13.171Z,98670.50
2022-12-20T07:58:40.650Z,98659.53
2022-12-20T08:01:07.496Z,98656.81
2022-12-20T08:03:43.943Z,98659.41
2022-12-20T08:06:10.691Z,98670.50
2022-12-20T08:08:41.025Z,98667.88
2022-12-20T08:11:08.831Z,98663.53
2022-12-20T08:13:38.174Z,98674.31
2022-12-20T08:16:09.046Z,98675.44
2022-12-20T08:18:35.558Z,98673.84
2022-12-20T08:21:02.054Z,98655.72
2022-12-20T08:23:28.494Z,98658.50
2022-12-20T08:25:54.923Z,98658.63
2022-12-20T08:28:21.384Z,98665.72
2022-12-20T08:30:47.884Z,98646.94
2022-12-20T08:33:14.376Z,98645.19
2022-12-20T08:35:40.931Z,98649.47
2022-12-20T08:38:07.792Z,98646.09
2022-12-20T08:40:34.429Z,98650.34
2022-12-20T08:43:05.187Z,98654.19
2022-12-20T08:45:36.316Z,98658.06
2022-12-20T08:48:02.753Z,98653.22
2022-12-20T08:50:29.385Z,98647.72
2022-12-20T08:52:56.000Z,98653.53
2022-12-20T08:55:27.621Z,98650.66
2022-12-20T08:57:55.390Z,98652.94
2022-12-20T09:00:21.890Z,98647.72
2022-12-20T09:02:49.607Z,98650.56
2022-12-20T09:05:16.217Z,98640.66
2022-12-20T09:07:42.670Z,98639.59
2022-12-20T09:10:09.509Z,98648.81
2022-12-20T09:12:36.819Z,98655.09
2022-12-20T09:15:03.657Z,98638.97
2022-12-20T09:17:30.143Z,98640.28
2022-12-20T09:19:56.575Z,98633.69
2022-12-20T09:22:23.004Z,98639.09
2022-12-20T09:24:49.453Z,98640.44
2022-12-20T09:27:15.970Z,98630.97
2022-12-20T09:29:42.422Z,98632.50
2022-12-20T09:32:08.928Z,98628.66
2022-12-20T09:34:35.497Z,98623.59
2022-12-20T09:37:01.946Z,98630.06
2022-12-20T09:39:28.358Z,98629.72
2022-12-20T09:41:54.913Z,98624.31
2022-12-20T09:44:27.094Z,98616.22
2022-12-20T09:46:55.838Z,98620.53
2022-12-20T09:49:24.505Z,98615.84
2022-12-20T09:52:00.271Z,98607.84
2022-12-20T09:54:32.724Z,98607.16
2022-12-20T09:56:59.292Z,98600.69
2022-12-20T09:59:25.911Z,98598.88
2022-12-20T10:01:53.009Z,98590.00
2022-12-20T10:04:19.780Z,98594.56
2022-12-20T10:07:01.608Z,98597.47
2022-12-20T10:09:46.482Z,98604.97
2022-12-20T10:12:12.907Z,98600.38
2022-12-20T10:14:42.187Z,98596.53
2022-12-20T10:17:14.120Z,98589.78
2022-12-20T10:19:49.622Z,98583.38
2022-12-20T10:22:19.087Z,98583.56
2022-12-20T10:24:48.849Z,98589.59
2022-12-20T10:27:17.446Z,98576.31
2022-12-20T10:29:44.509Z,98577.69
2022-12-20T10:32:15.016Z,98574.03
2022-12-20T10:34:48.672Z,98562.78
2022-12-20T10:37:18.270Z,98558.00
2022-12-20T10:39:47.717Z,98548.03
2022-12-20T10:42:25.111Z,98543.59
2022-12-20T10:44:52.002Z,98538.34
2022-12-20T10:47:25.434Z,98536.00
2022-12-20T10:49:51.899Z,98525.03
2022-12-20T10:52:18.421Z,98529.03
2022-12-20T10:54:45.931Z,98524.50
2022-12-20T10:57:15.267Z,98522.09
2022-12-20T10:59:52.668Z,98516.22
2022-12-20T11:02:38.895Z,98513.41
2022-12-20T11:05:20.843Z,98510.38
2022-12-20T11:08:34.642Z,98503.44
2022-12-20T11:10:40.055Z,98500.78
2022-12-20T11:13:06.657Z,98494.91
2022-12-20T11:15:35.149Z,98492.47
2022-12-20T11:18:07.513Z,98487.16
2022-12-20T11:20:38.629Z,98485.84
2022-12-20T11:23:13.674Z,98488.38
2022-12-20T11:25:46.410Z,98479.88
2022-12-20T11:28:32.524Z,98473.03
2022-12-20T11:31:09.665Z,98469.97
2022-12-20T11:33:55.076Z,98464.00
2022-12-20T11:36:32.167Z,98466.97
2022-12-20T11:39:13.993Z,98461.16
2022-12-20T11:41:59.298Z,98459.38
2022-12-20T11:44:47.393Z,98451.84
2022-12-20T11:47:27.786Z,98452.88
2022-12-20T11:50:09.782Z,98445.16
2022-12-20T11:52:43.722Z,98442.50
2022-12-20T11:55:12.956Z,98441.38
2022-12-20T11:58:17.097Z,98447.00
2022-12-20T12:00:36.274Z,98441.63
2022-12-20T12:03:12.593Z,98443.16
2022-12-20T12:05:47.141Z,98438.47
2022-12-20T12:08:18.514Z,98426.13
2022-12-20T12:11:04.718Z,98423.00
2022-12-20T12:13:33.528Z,98425.38
2022-12-20T12:16:09.928Z,98422.84
2022-12-20T12:18:38.300Z,98423.31
2022-12-20T12:21:08.970Z,98423.13
2022-12-20T12:23:36.382Z,98432.41
2022-12-20T12:26:05.823Z,98432.22
2022-12-20T12:28:33.335Z,98426.44
2022-12-20T12:31:03.989Z,98427.44
2022-12-20T12:33:38.684Z,98426.03
2022-12-20T12:36:31.363Z,98424.91
2022-12-20T12:39:11.299Z,98415.94
2022-12-20T12:41:43.831Z,98419.94
2022-12-20T12:44:19.121Z,98419.56
2022-12-20T12:46:48.171Z,98417.81
2022-12-20T12:49:23.297Z,98415.53
2022-12-20T12:51:54.493Z,98419.00
2022-12-20T12:54:30.243Z,98416.34
2022-12-20T12:57:02.461Z,98416.41
2022-12-20T12:59:34.986Z,98419.25
2022-12-20T13:02:04.539Z,98416.75
2022-12-20T13:04:31.289Z,98423.00
2022-12-20T13:07:03.248Z,98417.94
2022-12-20T13:09:29.733Z,98408.00
2022-12-20T13:12:02.239Z,98426.28
2022-12-20T13:14:29.863Z,98422.19
2022-12-20T13:17:25.523Z,98415.72
2022-12-20T13:19:50.803Z,98422.09
2022-12-20T13:22:17.251Z,98419.13
2022-12-20T13:24:50.543Z,98421.44
2022-12-20T13:27:17.269Z,98417.41
2022-12-20T13:30:22.311Z,98418.63
2022-12-20T13:32:54.359Z,98408.91
2022-12-20T13:35:27.986Z,98416.38
2022-12-20T13:37:57.351Z,98411.94
2022-12-20T13:40:36.524Z,98410.34
2022-12-20T13:43:06.360Z,98406.41
2022-12-20T13:45:32.871Z,98407.78
2022-12-20T13:48:11.115Z,98408.06
2022-12-20T13:50:47.325Z,98400.53
2022-12-20T13:53:18.006Z,98413.88
2022-12-20T13:55:45.234Z,98417.00
2022-12-20T13:58:31.999Z,98413.00
2022-12-20T14:01:06.416Z,98398.03
2022-12-20T14:03:33.343Z,98401.63
2022-12-20T14:06:04.411Z,98393.25
2022-12-20T14:08:33.118Z,98390.50
2022-12-20T14:11:27.357Z,98387.56
2022-12-20T14:14:01.211Z,98374.50
2022-12-20T14:16:29.740Z,98371.38
2022-12-20T14:19:06.610Z,98372.88
2022-12-20T14:21:39.635Z,98364.53
2022-12-20T14:24:08.986Z,98363.91
2022-12-20T14:26:44.589Z,98366.66
2022-12-20T14:29:12.282Z,98371.16
2022-12-20T14:31:40.628Z,98366.31
2022-12-20T14:34:16.214Z,98379.31
2022-12-20T14:36:43.927Z,98375.34
2022-12-20T14:39:30.642Z,98364.75
2022-12-20T14:42:01.167Z,98363.44
2022-12-20T14:44:31.540Z,98361.44
2022-12-20T14:47:04.244Z,98367.19
2022-12-20T14:49:37.996Z,98368.31
2022-12-20T14:52:06.818Z,98361.84
2022-12-20T14:55:06.166Z,98356.28
2022-12-20T14:57:23.238Z,98357.22
2022-12-20T15:00:09.269Z,98349.84
2022-12-20T15:02:46.260Z,98349.53
2022-12-20T15:05:36.692Z,98345.19
2022-12-20T15:08:23.642Z,98345.06
2022-12-20T15:10:50.296Z,98343.78
2022-12-20T15:13:17.809Z,98346.47
2022-12-20T15:15:44.391Z,98342.84
2022-12-20T15:18:12.487Z,98347.69
2022-12-20T15:20:39.635Z,98346.09
2022-12-20T15:23:06.129Z,98348.38
2022-12-20T15:25:41.212Z,98345.19
2022-12-20T15:28:20.564Z,98345.34
2022-12-20T15:30:48.055Z,98346.38
2022-12-20T15:33:19.850Z,98346.91
2022-12-20T15:35:46.491Z,98347.06
2022-12-20T15:38:17.119Z,98344.81
2022-12-20T15:40:44.780Z,98343.28
2022-12-20T15:43:15.752Z,98340.06
2022-12-20T15:45:43.351Z,98350.22
2022-12-20T15:48:17.557Z,98349.22
2022-12-20T15:50:48.525Z,98343.56
2022-12-20T15:53:16.063Z,98340.19
2022-12-20T15:55:42.599Z,98343.06
2022-12-20T15:58:10.016Z,98337.78
2022-12-20T16:00:39.267Z,98333.91
2022-12-20T16:03:05.967Z,98328.66
2022-12-20T16:05:32.517Z,98328.03
2022-12-20T16:07:58.978Z,98330.94
2022-12-20T16:10:25.842Z,98326.84
2022-12-20T16:12:52.301Z,98330.72
2022-12-20T16:15:20.390Z,98332.19
2022-12-20T16:17:46.862Z,98331.31
2022-12-20T16:20:13.434Z,98339.59
2022-12-20T16:22:40.083Z,98339.38
2022-12-20T16:25:06.681Z,98344.00
2022-12-20T16:27:33.239Z,98344.16
2022-12-20T16:29:59.691Z,98339.00
2022-12-20T16:32:26.114Z,98339.91
2022-12-20T16:34:52.698Z,98346.66
2022-12-20T16:37:19.224Z,98341.38
2022-12-20T16:39:45.733Z,98342.91
2022-12-20T16:42:16.622Z,98343.47
2022-12-20T16:44:45.136Z,98336.88
2022-12-20T16:47:12.337Z,98338.06
2022-12-20T16:49:38.965Z,98339.50
2022-12-20T16:52:06.569Z,98330.66
2022-12-20T16:54:33.205Z,98330.91
2022-12-20T16:56:59.667Z,98334.25
2022-12-20T16:59:26.332Z,98320.28
2022-12-20T17:01:54.656Z,98315.84
2022-12-20T17:04:21.508Z,98313.34
2022-12-20T17:06:48.094Z,98309.03
2022-12-20T17:09:16.257Z,98301.31
2022-12-20T17:11:43.102Z,98314.63
2022-12-20T17:14:12.952Z,98310.34
2022-12-20T17:16:40.042Z,98306.75
2022-12-20T17:19:06.653Z,98307.47
2022-12-20T17:24:23.610Z,98317.28
2022-12-20T17:26:50.179Z,98324.06
2022-12-20T17:29:17.818Z,98330.56
2022-12-20T17:31:45.297Z,98314.06
2022-12-20T17:34:25.180Z,98316.50
2022-12-20T17:36:54.229Z,98329.25
2022-12-20T17:39:21.676Z,98339.06
2022-12-20T17:41:49.557Z,98339.91
2022-12-20T17:44:23.865Z,98334.34
2022-12-20T17:46:50.698Z,98331.66
2022-12-20T17:49:17.436Z,98321.94
2022-12-20T17:51:43.908Z,98332.22
2022-12-20T17:54:18.254Z,98334.84
2022-12-20T17:56:45.138Z,98340.91
2022-12-20T17:59:12.710Z,98340.41
2022-12-20T18:01:39.427Z,98335.34
2022-12-20T18:04:07.269Z,98325.25
2022-12-20T18:06:35.290Z,98331.91
2022-12-20T18:09:01.781Z,98325.06
2022-12-20T18:11:28.858Z,98319.50
2022-12-20T18:13:56.695Z,98321.72
2022-12-20T18:16:25.266Z,98322.44
2022-12-20T18:18:53.295Z,98320.84
2022-12-20T18:21:20.204Z,98314.31
2022-12-20T18:23:46.976Z,98308.06
2022-12-20T18:26:13.415Z,98310.75
2022-12-20T18:28:40.747Z,98309.22
2022-12-20T18:31:08.652Z,98299.75
2022-12-20T18:33:35.529Z,98296.88
2022-12-20T18:36:03.915Z,98304.63
2022-12-20T18:38:30.936Z,98304.78
2022-12-20T18:40:58.297Z,98301.19
2022-12-20T18:43:24.748Z,98294.59
2022-12-20T18:45:51.239Z,98290.88
2022-12-20T18:48:17.710Z,98301.03
2022-12-20T18:50:44.192Z,98301.59
2022-12-20T18:53:10.631Z,98295.16
2022-12-20T18:55:37.532Z,98293.72
2022-12-20T18:58:04.389Z,98287.00
2022-12-20T19:00:30.889Z,98288.09
2022-12-20T19:02:59.910Z,98285.25
2022-12-20T19:05:26.626Z,98288.16
2022-12-20T19:07:53.209Z,98286.28
2022-12-20T19:10:19.797Z,98273.56
2022-12-20T19:12:46.256Z,98263.13
2022-12-20T19:15:12.752Z,98253.78
2022-12-20T19:17:39.245Z,98259.00
2022-12-20T19:20:06.225Z,98259.31
2022-12-20T19:22:32.699Z,98251.53
2022-12-20T19:24:59.153Z,98251.31
2022-12-20T19:27:25.618Z,98249.66
2022-12-20T19:29:54.399Z,98235.44
2022-12-20T19:32:20.855Z,98232.44
2022-12-20T19:34:47.309Z,98229.97
2022-12-20T19:37:13.770Z,98228.94
2022-12-20T19:39:40.316Z,98232.63
2022-12-20T19:44:53.346Z,98226.97
2022-12-20T19:47:19.812Z,98230.47
2022-12-20T19:49:46.340Z,98229.06
2022-12-20T19:52:28.419Z,98232.50
2022-12-20T19:54:55.572Z,98223.84
2022-12-20T19:57:22.064Z,98214.03
2022-12-20T19:59:52.237Z,98207.03
2022-12-20T20:02:22.442Z,98204.19
2022-12-20T20:04:49.012Z,98204.88
2022-12-20T20:07:15.454Z,98194.00
2022-12-20T20:09:41.908Z,98190.81
2022-12-20T20:12:08.347Z,98197.19
2022-12-20T20:14:34.764Z,98198.31
2022-12-20T20:17:01.359Z,98192.56
2022-12-20T20:19:27.814Z,98201.72
2022-12-20T20:21:54.290Z,98201.91
2022-12-20T20:24:20.801Z,98188.50
2022-12-20T20:26:47.366Z,98195.31
2022-12-20T20:29:13.959Z,98190.28
2022-12-20T20:31:40.557Z,98186.31
2022-12-20T20:34:07.167Z,98187.75
2022-12-20T20:36:33.711Z,98187.00
2022-12-20T20:39:00.202Z,98190.59
2022-12-20T20:41:26.827Z,98188.50
2022-12-20T20:43:53.279Z,98190.56
2022-12-20T20:46:19.766Z,98184.28
2022-12-20T20:48:46.335Z,98186.31
2022-12-20T20:51:13.039Z,98184.00
2022-12-20T20:53:39.842Z,98180.00
2022-12-20T20:56:06.939Z,98178.72
2022-12-20T20:58:34.534Z,98184.88
2022-12-20T21:01:01.966Z,98183.66
2022-12-20T21:03:29.890Z,98186.78
2022-12-20T21:08:44.740Z,98182.16
2022-12-20T21:11:11.862Z,98168.19
2022-12-20T21:13:38.564Z,98168.44
2022-12-20T21:16:09.174Z,98165.78
2022-12-20T21:18:35.853Z,98167.13
2022-12-20T21:21:06.642Z,98171.13
2022-12-20T21:23:33.184Z,98162.41
2022-12-20T21:25:59.739Z,98167.56
2022-12-20T21:28:27.568Z,98161.56
2022-12-20T21:31:01.444Z,98151.25
2022-12-20T21:33:28.172Z,98149.00
2022-12-20T21:35:59.925Z,98150.84
2022-12-20T21:38:26.472Z,98146.97
2022-12-20T21:40:58.312Z,98153.72
2022-12-20T21:43:24.768Z,98148.41
2022-12-20T21:45:51.225Z,98145.19
2022-12-20T21:48:19.477Z,98149.00
2022-12-20T21:50:46.158Z,98138.25
2022-12-20T21:53:19.081Z,98139.69
2022-12-20T21:55:45.900Z,98130.03
2022-12-20T21:58:12.351Z,98134.69
2022-12-20T22:00:38.786Z,98127.97
2022-12-20T22:03:05.465Z,98130.75
2022-12-20T22:05:31.975Z,98127.72
2022-12-20T22:07:58.390Z,98123.53
2022-12-20T22:10:25.028Z,98121.69
2022-12-20T22:12:51.498Z,98119.50
2022-12-20T22:15:17.925Z,98110.94
2022-12-20T22:17:44.981Z,98102.25
2022-12-20T22:20:12.489Z,98091.44
2022-12-20T22:22:38.909Z,98095.00
2022-12-20T22:25:05.492Z,98093.66
2022-12-20T22:27:31.944Z,98087.66
2022-12-20T22:29:58.406Z,98095.09
2022-12-20T22:32:24.926Z,98089.44
2022-12-20T22:34:51.356Z,98084.75
2022-12-20T22:37:17.873Z,98080.91
2022-12-20T22:39:44.356Z,98083.03
2022-12-20T22:42:10.822Z,98082.47
2022-12-20T22:44:37.356Z,98076.38
2022-12-20T22:47:03.835Z,98074.34
2022-12-20T22:49:30.290Z,98071.59
2022-12-20T22:52:06.821Z,98062.75
2022-12-20T22:54:34.325Z,98057.09
2022-12-20T22:57:00.829Z,98054.31
2022-12-20T22:59:27.352Z,98049.31
2022-12-20T23:01:54.058Z,98040.34
2022-12-20T23:04:20.632Z,98034.59
2022-12-20T23:06:47.058Z,98034.59
2022-12-20T23:09:13.511Z,98035.56
2022-12-20T23:11:58.713Z,98039.47
2022-12-20T23:14:43.755Z,98029.25
2022-12-20T23:17:10.357Z,98022.97
2022-12-20T23:19:55.748Z,98010.66
2022-12-20T23:22:37.721Z,98007.06
2022-12-20T23:25:04.887Z,98006.47
2022-12-20T23:27:31.431Z,97996.03
2022-12-20T23:29:57.878Z,97990.16
2022-12-20T23:32:24.439Z,97990.16
2022-12-20T23:34:50.897Z,97979.56
2022-12-20T23:37:17.446Z,97983.00
2022-12-20T23:39:43.916Z,97985.78
2022-12-20T23:42:10.476Z,97980.97
2022-12-20T23:44:36.961Z,97981.41
2022-12-20T23:47:03.515Z,97974.13
2022-12-20T23:49:30.023Z,97973.97
2022-12-20T23:51:56.508Z,97980.84
2022-12-20T23:54:23.039Z,97975.22
2022-12-20T23:56:49.798Z,97976.78
2022-12-20T23:59:16.411Z,97979.06
